createdAt,value
2023-03-28T00:01:03.445Z,0
2023-03-28T00:02:17.733Z,0
2023-03-28T00:03:32.143Z,0
2023-03-28T00:04:46.459Z,0
2023-03-28T00:06:00.736Z,0
2023-03-28T00:07:15.022Z,0
2023-03-28T00:08:29.429Z,0
2023-03-28T00:09:43.756Z,0
2023-03-28T00:10:58.035Z,0
2023-03-28T00:12:12.309Z,0
2023-03-28T00:13:26.730Z,0
2023-03-28T00:14:41.039Z,0
2023-03-28T00:15:55.328Z,0
2023-03-28T00:17:09.606Z,0
2023-03-28T00:18:24.007Z,0
2023-03-28T00:19:38.348Z,0
2023-03-28T00:20:52.629Z,0
2023-03-28T00:22:06.908Z,0
2023-03-28T00:23:21.299Z,0
2023-03-28T00:24:35.622Z,0
2023-03-28T00:25:49.917Z,0
2023-03-28T00:27:04.202Z,0
2023-03-28T00:28:18.608Z,0
2023-03-28T00:29:32.920Z,0
2023-03-28T00:30:47.214Z,0
2023-03-28T00:32:01.492Z,0
2023-03-28T00:33:15.897Z,0
2023-03-28T00:34:30.211Z,0
2023-03-28T00:35:44.492Z,0
2023-03-28T00:36:58.770Z,0
2023-03-28T00:38:13.194Z,0
2023-03-28T00:39:27.507Z,0
2023-03-28T00:40:41.802Z,0
2023-03-28T00:41:56.223Z,0
2023-03-28T00:43:10.615Z,0
2023-03-28T00:44:24.953Z,0
2023-03-28T00:45:39.229Z,0
2023-03-28T00:46:53.506Z,0
2023-03-28T00:48:07.908Z,0
2023-03-28T00:50:36.528Z,0
2023-03-28T00:51:50.806Z,0
2023-03-28T00:53:05.214Z,0
2023-03-28T00:54:19.527Z,0
2023-03-28T00:55:33.817Z,0
2023-03-28T00:56:48.226Z,0
2023-03-28T00:58:02.625Z,0
2023-03-28T00:59:16.953Z,0
2023-03-28T01:00:31.225Z,0
2023-03-28T01:01:45.505Z,0
2023-03-28T01:02:59.926Z,0
2023-03-28T01:04:14.236Z,0
2023-03-28T01:05:28.527Z,0
2023-03-28T01:06:42.807Z,0
2023-03-28T01:07:57.216Z,0
2023-03-28T01:09:11.542Z,0
2023-03-28T01:10:25.819Z,0
2023-03-28T01:11:40.242Z,0
2023-03-28T01:12:54.642Z,0
2023-03-28T01:14:08.966Z,0
2023-03-28T01:15:23.260Z,0
2023-03-28T01:16:37.678Z,0
2023-03-28T01:17:52.080Z,0
2023-03-28T01:19:06.398Z,0
2023-03-28T01:20:20.679Z,0
2023-03-28T01:21:35.119Z,0
2023-03-28T01:22:49.517Z,0
2023-03-28T01:24:03.835Z,0
2023-03-28T01:25:18.132Z,0
2023-03-28T01:26:32.405Z,0
2023-03-28T01:27:46.809Z,0
2023-03-28T01:29:01.142Z,0
2023-03-28T01:30:15.411Z,0
2023-03-28T01:31:29.689Z,0
2023-03-28T01:33:58.423Z,0
2023-03-28T01:35:12.706Z,0
2023-03-28T01:36:27.111Z,0
2023-03-28T01:37:41.523Z,0
2023-03-28T01:38:55.836Z,0
2023-03-28T01:40:10.136Z,0
2023-03-28T01:41:24.406Z,0
2023-03-28T01:42:38.810Z,0
2023-03-28T01:45:07.424Z,0
2023-03-28T01:46:21.844Z,0
2023-03-28T01:47:36.258Z,0
2023-03-28T01:48:50.566Z,0
2023-03-28T01:52:33.554Z,0
2023-03-28T01:53:47.861Z,0
2023-03-28T01:55:02.149Z,0
2023-03-28T01:56:16.545Z,0
2023-03-28T01:57:30.960Z,0
2023-03-28T01:58:45.291Z,0
2023-03-28T01:59:59.561Z,0
2023-03-28T02:01:13.848Z,0
2023-03-28T02:02:28.258Z,0
2023-03-28T02:03:42.569Z,0
2023-03-28T02:04:56.860Z,0
2023-03-28T02:06:11.140Z,0
2023-03-28T02:07:25.539Z,0
2023-03-28T02:08:39.861Z,0
2023-03-28T02:09:54.155Z,0
2023-03-28T02:11:08.433Z,0
2023-03-28T02:12:22.836Z,0
2023-03-28T02:13:37.155Z,0
2023-03-28T02:14:51.445Z,0
2023-03-28T02:16:05.731Z,0
2023-03-28T02:17:20.134Z,0
2023-03-28T02:18:34.455Z,0
2023-03-28T02:19:48.743Z,0
2023-03-28T02:21:03.150Z,0
2023-03-28T02:22:17.556Z,0
2023-03-28T02:23:31.884Z,0
2023-03-28T02:24:46.170Z,0
2023-03-28T02:26:00.570Z,0
2023-03-28T02:27:14.987Z,0
2023-03-28T02:28:29.304Z,0
2023-03-28T02:29:43.587Z,0
2023-03-28T02:30:57.863Z,0
2023-03-28T02:32:12.279Z,0
2023-03-28T02:33:26.600Z,0
2023-03-28T02:34:40.879Z,0
2023-03-28T02:35:55.152Z,0
2023-03-28T02:37:09.559Z,0
2023-03-28T02:38:23.880Z,0
2023-03-28T02:39:38.162Z,0
2023-03-28T02:40:52.443Z,0
2023-03-28T02:42:06.851Z,0
2023-03-28T02:43:21.185Z,0
2023-03-28T02:44:35.458Z,0
2023-03-28T02:45:49.855Z,0
2023-03-28T02:47:04.280Z,0
2023-03-28T02:48:18.594Z,0
2023-03-28T02:49:32.872Z,0
2023-03-28T02:50:47.157Z,0
2023-03-28T02:52:01.564Z,0
2023-03-28T02:53:15.883Z,0
2023-03-28T02:54:30.161Z,0
2023-03-28T02:55:44.590Z,0
2023-03-28T02:58:13.315Z,0
2023-03-28T02:59:27.606Z,0
2023-03-28T03:00:41.892Z,0
2023-03-28T03:01:56.285Z,0
2023-03-28T03:03:10.618Z,0
2023-03-28T03:04:24.905Z,0
2023-03-28T03:05:39.311Z,0
2023-03-28T03:06:53.704Z,0
2023-03-28T03:08:08.038Z,0
2023-03-28T03:09:22.308Z,0
2023-03-28T03:10:36.596Z,0
2023-03-28T03:11:50.998Z,0
2023-03-28T03:13:05.334Z,0
2023-03-28T03:15:33.888Z,0
2023-03-28T03:16:48.296Z,0
2023-03-28T03:18:02.622Z,0
2023-03-28T03:19:16.902Z,0
2023-03-28T03:20:31.179Z,0
2023-03-28T03:21:45.593Z,0
2023-03-28T03:22:59.919Z,0
2023-03-28T03:24:14.194Z,0
2023-03-28T03:25:28.618Z,0
2023-03-28T03:26:43.037Z,0
2023-03-28T03:29:11.633Z,0
2023-03-28T03:30:25.914Z,0
2023-03-28T03:31:40.325Z,0
2023-03-28T03:32:54.652Z,0
2023-03-28T03:34:08.923Z,0
2023-03-28T03:35:23.209Z,0
2023-03-28T03:36:37.630Z,0
2023-03-28T03:37:51.952Z,0
2023-03-28T03:39:06.238Z,0
2023-03-28T03:40:20.638Z,0
2023-03-28T03:41:35.047Z,0
2023-03-28T03:42:49.356Z,0
2023-03-28T03:44:03.644Z,0
2023-03-28T03:45:17.922Z,0
2023-03-28T03:46:32.331Z,0
2023-03-28T03:47:46.665Z,0
2023-03-28T03:49:00.943Z,0
2023-03-28T03:50:15.222Z,0
2023-03-28T03:51:29.640Z,0
2023-03-28T03:52:43.956Z,0
2023-03-28T03:53:58.244Z,0
2023-03-28T03:55:12.527Z,0
2023-03-28T03:56:26.923Z,0
2023-03-28T03:58:55.537Z,0
2023-03-28T04:00:09.803Z,0
2023-03-28T04:01:24.230Z,0
2023-03-28T04:02:38.548Z,0
2023-03-28T04:03:52.818Z,0
2023-03-28T04:05:07.099Z,0
2023-03-28T04:06:21.520Z,0
2023-03-28T04:07:35.841Z,0
2023-03-28T04:08:50.128Z,0
2023-03-28T04:10:04.548Z,0
2023-03-28T04:11:18.958Z,0
2023-03-28T04:12:33.287Z,0
2023-03-28T04:13:47.560Z,0
2023-03-28T04:15:01.839Z,0
2023-03-28T04:16:16.253Z,0
2023-03-28T04:17:30.579Z,0
2023-03-28T04:18:44.856Z,0
2023-03-28T04:19:59.133Z,0
2023-03-28T04:21:13.536Z,0
2023-03-28T04:22:27.873Z,0
2023-03-28T04:23:42.156Z,0
2023-03-28T04:24:56.575Z,0
2023-03-28T04:26:10.979Z,0
2023-03-28T04:27:25.310Z,0
2023-03-28T04:28:39.553Z,1
2023-03-28T04:31:08.202Z,1
2023-03-28T04:32:22.431Z,1
2023-03-28T04:33:36.667Z,1
2023-03-28T04:34:50.890Z,1
2023-03-28T04:37:19.531Z,0
2023-03-28T04:38:33.848Z,0
2023-03-28T04:39:48.129Z,0
2023-03-28T04:41:02.373Z,2
2023-03-28T04:42:16.718Z,0
2023-03-28T04:43:30.966Z,1
2023-03-28T04:44:45.396Z,0
2023-03-28T04:45:59.613Z,1
2023-03-28T04:47:13.995Z,2
2023-03-28T04:48:28.290Z,2
2023-03-28T04:49:42.534Z,3
2023-03-28T04:50:56.768Z,5
2023-03-28T04:52:11.119Z,4
2023-03-28T04:53:25.342Z,5
2023-03-28T04:54:39.632Z,5
2023-03-28T04:55:53.880Z,8
2023-03-28T04:57:08.109Z,13
2023-03-28T04:58:22.336Z,19
2023-03-28T04:59:36.563Z,20
2023-03-28T05:00:50.862Z,23
2023-03-28T05:02:05.110Z,31
2023-03-28T05:03:19.339Z,37
2023-03-28T05:04:33.704Z,51
2023-03-28T05:05:47.931Z,56
2023-03-28T05:07:02.218Z,66
2023-03-28T05:08:16.465Z,80
2023-03-28T05:09:30.816Z,96
2023-03-28T05:10:45.053Z,114
2023-03-28T05:11:59.272Z,124
2023-03-28T05:13:13.570Z,142
2023-03-28T05:14:27.820Z,165
2023-03-28T05:15:42.036Z,185
2023-03-28T05:18:10.497Z,230
2023-03-28T05:19:24.798Z,259
2023-03-28T05:20:39.037Z,284
2023-03-28T05:21:53.270Z,313
2023-03-28T05:23:07.490Z,348
2023-03-28T05:24:21.725Z,361
2023-03-28T05:25:36.020Z,393
2023-03-28T05:28:04.501Z,463
2023-03-28T05:29:18.727Z,497
2023-03-28T05:30:32.942Z,514
2023-03-28T05:33:01.479Z,599
2023-03-28T05:34:15.726Z,631
2023-03-28T05:35:29.948Z,679
2023-03-28T05:36:44.178Z,692
2023-03-28T05:37:58.472Z,733
2023-03-28T05:39:12.716Z,778
2023-03-28T05:40:26.948Z,817
2023-03-28T05:42:55.547Z,874
2023-03-28T05:44:09.836Z,903
2023-03-28T05:46:38.311Z,965
2023-03-28T05:47:52.546Z,1017
2023-03-28T05:49:06.772Z,1072
2023-03-28T05:51:35.299Z,1198
2023-03-28T05:52:49.538Z,1252
2023-03-28T05:54:03.766Z,1320
2023-03-28T05:55:17.999Z,1369
2023-03-28T05:56:32.291Z,1386
2023-03-28T05:57:46.535Z,1455
2023-03-28T05:59:00.769Z,1472
2023-03-28T06:00:14.992Z,1489
2023-03-28T06:01:29.360Z,1496
2023-03-28T06:02:43.651Z,1636
2023-03-28T06:03:57.904Z,1694
2023-03-28T06:05:12.140Z,1727
2023-03-28T06:06:26.358Z,1712
2023-03-28T06:07:40.582Z,1778
2023-03-28T06:08:54.884Z,1762
2023-03-28T06:10:09.135Z,1769
2023-03-28T06:11:23.476Z,1784
2023-03-28T06:13:51.938Z,1834
2023-03-28T06:15:06.226Z,1894
2023-03-28T06:16:20.482Z,1932
2023-03-28T06:17:34.708Z,1961
2023-03-28T06:18:48.919Z,2000
2023-03-28T06:20:03.159Z,2021
2023-03-28T06:21:17.459Z,2043
2023-03-28T06:22:31.687Z,2082
2023-03-28T06:23:45.929Z,2127
2023-03-28T06:25:00.153Z,2160
2023-03-28T06:26:14.388Z,2187
2023-03-28T06:27:28.675Z,2204
2023-03-28T06:28:42.922Z,2220
2023-03-28T06:29:57.156Z,2212
2023-03-28T06:31:11.521Z,2105
2023-03-28T06:32:25.754Z,2129
2023-03-28T06:33:40.047Z,2340
2023-03-28T06:34:54.276Z,2362
2023-03-28T06:36:08.653Z,2402
2023-03-28T06:37:22.881Z,2452
2023-03-28T06:38:37.118Z,2461
2023-03-28T06:39:51.400Z,2544
2023-03-28T06:41:05.648Z,2854
2023-03-28T06:42:19.875Z,3132
2023-03-28T06:43:34.107Z,3066
2023-03-28T06:44:48.333Z,3087
2023-03-28T06:46:02.622Z,2928
2023-03-28T06:47:16.870Z,2696
2023-03-28T06:48:31.221Z,2757
2023-03-28T06:50:59.662Z,2887
2023-03-28T06:52:13.982Z,3171
2023-03-28T06:54:42.450Z,2905
2023-03-28T06:55:56.670Z,2914
2023-03-28T06:57:10.890Z,2923
2023-03-28T06:58:25.191Z,2918
2023-03-28T06:59:39.435Z,2927
2023-03-28T07:04:36.392Z,2998
2023-03-28T07:05:50.642Z,2969
2023-03-28T07:07:04.860Z,3059
2023-03-28T07:08:19.097Z,3113
2023-03-28T07:09:33.319Z,3112
2023-03-28T07:10:47.617Z,3165
2023-03-28T07:12:01.869Z,3236
2023-03-28T07:13:16.228Z,3252
2023-03-28T07:14:30.453Z,3317
2023-03-28T07:15:44.833Z,3359
2023-03-28T07:16:59.142Z,3403
2023-03-28T07:18:13.364Z,3467
2023-03-28T07:19:27.603Z,3525
2023-03-28T07:20:41.825Z,3579
2023-03-28T07:23:10.356Z,3669
2023-03-28T07:24:24.597Z,3784
2023-03-28T07:25:38.823Z,4078
2023-03-28T07:26:53.060Z,4319
2023-03-28T07:28:07.283Z,4423
2023-03-28T07:29:21.579Z,4557
2023-03-28T07:30:35.820Z,4334
2023-03-28T07:31:50.046Z,4070
2023-03-28T07:33:04.275Z,4127
2023-03-28T07:34:18.508Z,4122
2023-03-28T07:35:32.806Z,4251
2023-03-28T07:36:47.033Z,4219
2023-03-28T07:38:01.273Z,4366
2023-03-28T07:39:15.505Z,4546
2023-03-28T07:40:29.721Z,4560
2023-03-28T07:41:44.018Z,4499
2023-03-28T07:42:58.266Z,4489
2023-03-28T07:44:12.482Z,4554
2023-03-28T07:45:26.711Z,4699
2023-03-28T07:46:41.008Z,4809
2023-03-28T07:49:09.590Z,4691
2023-03-28T07:50:23.881Z,4420
2023-03-28T07:51:38.283Z,4345
2023-03-28T07:52:51.580Z,4332
2023-03-28T07:54:05.816Z,4361
2023-03-28T07:55:20.159Z,4460
2023-03-28T07:56:34.397Z,4394
2023-03-28T07:57:48.620Z,4436
2023-03-28T07:59:02.908Z,4451
2023-03-28T08:00:17.167Z,4456
2023-03-28T08:01:31.391Z,4530
2023-03-28T08:02:45.602Z,4554
2023-03-28T08:03:59.831Z,4612
2023-03-28T08:05:14.145Z,4743
2023-03-28T08:06:28.378Z,4700
2023-03-28T08:07:42.757Z,4757
2023-03-28T08:08:56.971Z,5016
2023-03-28T08:10:11.194Z,5054
2023-03-28T08:11:25.494Z,5284
2023-03-28T08:12:39.742Z,5525
2023-03-28T08:13:53.984Z,5991
2023-03-28T08:15:08.328Z,6570
2023-03-28T08:16:22.555Z,6520
2023-03-28T08:17:36.839Z,6881
2023-03-28T08:18:51.090Z,7599
2023-03-28T08:20:05.312Z,10218
2023-03-28T08:21:19.551Z,76865
2023-03-28T08:22:33.779Z,38987
2023-03-28T08:23:48.077Z,18702
2023-03-28T08:25:02.310Z,79275
2023-03-28T08:26:16.544Z,80232
2023-03-28T08:27:30.756Z,74982
2023-03-28T08:28:44.995Z,25626
2023-03-28T08:29:59.294Z,30859
2023-03-28T08:32:27.763Z,22795
2023-03-28T08:33:41.995Z,22052
2023-03-28T08:34:56.220Z,26243
2023-03-28T08:36:10.518Z,16160
2023-03-28T08:37:24.757Z,29809
2023-03-28T08:38:38.973Z,22510
2023-03-28T08:39:53.202Z,22546
2023-03-28T08:41:07.439Z,19193
2023-03-28T08:42:21.725Z,14312
2023-03-28T08:43:35.963Z,32480
2023-03-28T08:44:50.195Z,22181
2023-03-28T08:47:18.653Z,14373
2023-03-28T08:48:32.954Z,14329
2023-03-28T08:49:47.188Z,12771
2023-03-28T08:51:01.409Z,14882
2023-03-28T08:52:15.784Z,15101
2023-03-28T08:53:30.018Z,18859
2023-03-28T08:54:44.326Z,17093
2023-03-28T08:55:58.559Z,13887
2023-03-28T08:57:12.904Z,14058
2023-03-28T08:58:27.134Z,14683
2023-03-28T08:59:41.355Z,6947
2023-03-28T09:00:55.648Z,21297
2023-03-28T09:02:09.902Z,23466
2023-03-28T09:03:24.127Z,67235
2023-03-28T09:04:38.342Z,16848
2023-03-28T09:05:52.571Z,16575
2023-03-28T09:07:06.878Z,12721
2023-03-28T09:08:21.112Z,15798
2023-03-28T09:09:35.342Z,14868
2023-03-28T09:10:49.563Z,15633
2023-03-28T09:12:03.797Z,13946
2023-03-28T09:13:18.096Z,14492
2023-03-28T09:15:46.564Z,12282
2023-03-28T09:17:00.790Z,12206
2023-03-28T09:18:15.015Z,11813
2023-03-28T09:19:29.310Z,13399
2023-03-28T09:20:43.560Z,15381
2023-03-28T09:21:57.785Z,14188
2023-03-28T09:23:12.004Z,15194
2023-03-28T09:24:26.242Z,16247
2023-03-28T09:25:40.530Z,27250
2023-03-28T09:26:54.770Z,15442
2023-03-28T09:28:08.999Z,12441
2023-03-28T09:29:23.237Z,12727
2023-03-28T09:30:37.461Z,12838
2023-03-28T09:31:51.757Z,12300
2023-03-28T09:33:06.000Z,12704
2023-03-28T09:34:20.217Z,11816
2023-03-28T09:35:34.438Z,11271
2023-03-28T09:36:48.672Z,11229
2023-03-28T09:38:02.978Z,11114
2023-03-28T09:39:17.214Z,12728
2023-03-28T09:40:31.448Z,11735
2023-03-28T09:41:45.665Z,11330
2023-03-28T09:42:59.958Z,11725
2023-03-28T09:44:14.263Z,7792
2023-03-28T09:45:28.540Z,11749
2023-03-28T09:46:41.871Z,8890
2023-03-28T09:47:55.161Z,9181
2023-03-28T09:49:09.404Z,8734
2023-03-28T09:50:23.634Z,8673
2023-03-28T09:51:37.848Z,6379
2023-03-28T09:52:52.077Z,5538
2023-03-28T09:54:06.390Z,4483
2023-03-28T09:55:20.631Z,4158
2023-03-28T09:56:34.842Z,4520
2023-03-28T09:57:49.073Z,5825
2023-03-28T09:59:03.312Z,12558
2023-03-28T10:00:17.604Z,16750
2023-03-28T10:01:31.851Z,8644
2023-03-28T10:02:46.065Z,9149
2023-03-28T10:04:00.288Z,13498
2023-03-28T10:05:14.524Z,68412
2023-03-28T10:06:28.815Z,75523
2023-03-28T10:07:43.071Z,8633
2023-03-28T10:08:57.293Z,64547
2023-03-28T10:11:25.752Z,9715
2023-03-28T10:12:40.047Z,8684
2023-03-28T10:13:54.285Z,8189
2023-03-28T10:15:08.507Z,7870
2023-03-28T10:16:22.736Z,7610
2023-03-28T10:17:37.115Z,7665
2023-03-28T10:18:51.409Z,7838
2023-03-28T10:20:05.655Z,8332
2023-03-28T10:22:34.089Z,79764
2023-03-28T10:23:48.325Z,83668
2023-03-28T10:25:02.636Z,82292
2023-03-28T10:26:16.876Z,77709
2023-03-28T10:27:31.102Z,15102
2023-03-28T10:28:45.314Z,8921
2023-03-28T10:29:59.545Z,9171
2023-03-28T10:31:13.851Z,8392
2023-03-28T10:32:28.086Z,8105
2023-03-28T10:34:56.542Z,5291
2023-03-28T10:36:10.761Z,4616
2023-03-28T10:37:25.070Z,5967
2023-03-28T10:38:39.303Z,6212
2023-03-28T10:39:53.000Z,6376
2023-03-28T10:41:07.753Z,6425
2023-03-28T10:42:21.990Z,6601
2023-03-28T10:43:36.282Z,7259
2023-03-28T10:44:50.520Z,7514
2023-03-28T10:46:04.759Z,7766
2023-03-28T10:47:18.976Z,8011
2023-03-28T10:48:33.269Z,8463
2023-03-28T10:49:47.565Z,7461
2023-03-28T10:51:01.836Z,7682
2023-03-28T10:52:16.127Z,9160
2023-03-28T10:53:29.466Z,9725
2023-03-28T10:54:43.757Z,17482
2023-03-28T10:55:58.040Z,13350
2023-03-28T10:57:11.326Z,10926
2023-03-28T10:58:25.561Z,9231
2023-03-28T10:59:39.866Z,9656
2023-03-28T11:00:54.122Z,9026
2023-03-28T11:02:08.322Z,9731
2023-03-28T11:03:22.561Z,10874
2023-03-28T11:04:36.774Z,78491
2023-03-28T11:05:51.073Z,80804
2023-03-28T11:07:05.319Z,10367
2023-03-28T11:08:19.539Z,80414
2023-03-28T11:09:33.771Z,80472
2023-03-28T11:10:47.995Z,21581
2023-03-28T11:12:02.310Z,12548
2023-03-28T11:13:16.538Z,12188
2023-03-28T11:14:30.774Z,15549
2023-03-28T11:15:44.994Z,16157
2023-03-28T11:16:59.215Z,76341
2023-03-28T11:18:13.523Z,23973
2023-03-28T11:19:27.769Z,21161
2023-03-28T11:20:41.982Z,13048
2023-03-28T11:21:56.209Z,10875
2023-03-28T11:23:10.430Z,10413
2023-03-28T11:24:24.736Z,12291
2023-03-28T11:25:38.971Z,13162
2023-03-28T11:26:53.206Z,11850
2023-03-28T11:28:07.497Z,11010
2023-03-28T11:29:20.830Z,11758
2023-03-28T11:30:35.105Z,12319
2023-03-28T11:33:02.637Z,5547
2023-03-28T11:34:16.935Z,75579
2023-03-28T11:35:31.168Z,77735
2023-03-28T11:36:45.389Z,81066
2023-03-28T11:37:59.625Z,80063
2023-03-28T11:39:13.858Z,75503
2023-03-28T11:40:28.155Z,77831
2023-03-28T11:41:42.396Z,82254
2023-03-28T11:42:56.620Z,79777
2023-03-28T11:44:10.851Z,72177
2023-03-28T11:45:25.074Z,15752
2023-03-28T11:46:39.366Z,13895
2023-03-28T11:47:53.615Z,7589
2023-03-28T11:49:07.844Z,13158
2023-03-28T11:50:22.061Z,11110
2023-03-28T11:51:36.277Z,11159
2023-03-28T11:52:50.596Z,10038
2023-03-28T11:54:04.837Z,9086
2023-03-28T11:55:19.051Z,8946
2023-03-28T11:56:33.270Z,8711
2023-03-28T11:57:47.508Z,8759
2023-03-28T11:59:01.803Z,8751
2023-03-28T12:00:16.045Z,8082
2023-03-28T12:01:30.273Z,9688
2023-03-28T12:02:44.563Z,10401
2023-03-28T12:03:57.903Z,10326
2023-03-28T12:06:26.477Z,11910
2023-03-28T12:07:39.754Z,11968
2023-03-28T12:08:54.060Z,11940
2023-03-28T12:10:08.300Z,16405
2023-03-28T12:11:22.529Z,6081
2023-03-28T12:12:36.746Z,77769
2023-03-28T12:13:50.985Z,78501
2023-03-28T12:15:05.282Z,28009
2023-03-28T12:16:19.518Z,16054
2023-03-28T12:17:33.749Z,21599
2023-03-28T12:18:47.972Z,13875
2023-03-28T12:20:02.200Z,22162
2023-03-28T12:21:16.507Z,15023
2023-03-28T12:22:30.739Z,22515
2023-03-28T12:23:44.968Z,23950
2023-03-28T12:24:59.198Z,26398
2023-03-28T12:26:13.428Z,12640
2023-03-28T12:27:27.717Z,17793
2023-03-28T12:28:41.954Z,12494
2023-03-28T12:29:56.190Z,23524
2023-03-28T12:31:10.425Z,24624
2023-03-28T12:32:24.644Z,18097
2023-03-28T12:33:38.936Z,12556
2023-03-28T12:34:53.172Z,25899
2023-03-28T12:36:07.402Z,11677
2023-03-28T12:37:21.637Z,12261
2023-03-28T12:38:35.917Z,5927
2023-03-28T12:39:50.217Z,19915
2023-03-28T12:41:04.509Z,16852
2023-03-28T12:42:17.829Z,12152
2023-03-28T12:43:32.124Z,10094
2023-03-28T12:44:46.423Z,8785
2023-03-28T12:46:00.699Z,8871
2023-03-28T12:47:13.991Z,14419
2023-03-28T12:48:28.223Z,19108
2023-03-28T12:49:42.512Z,16664
2023-03-28T12:50:56.752Z,19451
2023-03-28T12:52:10.985Z,19749
2023-03-28T12:53:25.206Z,19471
2023-03-28T12:54:39.440Z,18785
2023-03-28T12:55:53.732Z,19045
2023-03-28T12:57:07.978Z,21620
2023-03-28T13:00:50.650Z,33824
2023-03-28T13:02:04.970Z,76173
2023-03-28T13:03:19.200Z,23281
2023-03-28T13:04:33.422Z,21122
2023-03-28T13:05:47.658Z,20961
2023-03-28T13:07:01.884Z,14316
2023-03-28T13:08:16.176Z,11247
2023-03-28T13:09:30.415Z,67461
2023-03-28T13:10:44.651Z,12915
2023-03-28T13:11:58.864Z,15363
2023-03-28T13:13:13.096Z,11231
2023-03-28T13:14:27.388Z,27538
2023-03-28T13:15:41.639Z,18330
2023-03-28T13:16:55.871Z,8604
2023-03-28T13:18:10.150Z,80192
2023-03-28T13:19:23.451Z,67895
2023-03-28T13:20:37.687Z,22849
2023-03-28T13:21:51.910Z,11450
2023-03-28T13:23:06.148Z,77924
2023-03-28T13:24:20.366Z,75588
2023-03-28T13:25:34.663Z,77874
2023-03-28T13:26:48.911Z,75831
2023-03-28T13:28:03.138Z,76318
2023-03-28T13:29:17.353Z,19845
2023-03-28T13:30:31.579Z,21787
2023-03-28T13:31:45.892Z,27792
2023-03-28T13:33:00.134Z,21667
2023-03-28T13:34:14.356Z,19844
2023-03-28T13:35:28.584Z,17549
2023-03-28T13:36:42.816Z,19362
2023-03-28T13:37:57.103Z,20136
2023-03-28T13:39:11.352Z,19073
2023-03-28T13:40:25.565Z,16795
2023-03-28T13:42:54.023Z,14134
2023-03-28T13:44:08.320Z,16318
2023-03-28T13:45:22.563Z,15915
2023-03-28T13:46:36.789Z,14780
2023-03-28T13:47:51.011Z,13853
2023-03-28T13:49:05.248Z,12350
2023-03-28T13:50:19.613Z,13736
2023-03-28T13:51:33.883Z,12605
2023-03-28T13:52:47.213Z,11314
2023-03-28T13:55:14.765Z,11039
2023-03-28T13:56:28.990Z,11935
2023-03-28T13:57:43.207Z,10609
2023-03-28T13:58:57.444Z,11807
2023-03-28T14:00:11.743Z,12456
2023-03-28T14:01:25.967Z,14059
2023-03-28T14:02:40.197Z,14174
2023-03-28T14:03:54.421Z,14977
2023-03-28T14:05:08.664Z,15088
2023-03-28T14:06:22.947Z,14380
2023-03-28T14:07:37.201Z,14472
2023-03-28T14:08:51.550Z,14444
2023-03-28T14:10:05.780Z,15194
2023-03-28T14:11:19.986Z,16051
2023-03-28T14:12:34.305Z,16992
2023-03-28T14:13:48.529Z,18695
2023-03-28T14:15:02.764Z,18682
2023-03-28T14:16:16.988Z,19446
2023-03-28T14:17:31.216Z,16961
2023-03-28T14:18:45.516Z,20176
2023-03-28T14:21:13.982Z,18205
2023-03-28T14:22:28.201Z,19002
2023-03-28T14:23:42.437Z,19179
2023-03-28T14:24:56.801Z,17373
2023-03-28T14:26:11.070Z,17279
2023-03-28T14:27:24.377Z,17861
2023-03-28T14:28:38.593Z,17947
2023-03-28T14:29:52.905Z,18071
2023-03-28T14:31:07.150Z,16779
2023-03-28T14:32:21.367Z,16857
2023-03-28T14:33:35.587Z,16441
2023-03-28T14:34:49.944Z,16382
2023-03-28T14:36:04.237Z,15884
2023-03-28T14:37:18.477Z,16637
2023-03-28T14:38:32.709Z,15072
2023-03-28T14:39:46.928Z,14031
2023-03-28T14:41:01.153Z,13586
2023-03-28T14:42:15.462Z,12076
2023-03-28T14:43:29.705Z,12131
2023-03-28T14:44:43.924Z,11244
2023-03-28T14:45:58.162Z,9546
2023-03-28T14:47:12.384Z,11796
2023-03-28T14:49:40.927Z,6440
2023-03-28T14:50:55.151Z,5778
2023-03-28T14:52:09.385Z,5648
2023-03-28T14:53:23.602Z,5691
2023-03-28T14:54:37.901Z,5460
2023-03-28T14:55:52.133Z,5406
2023-03-28T14:57:06.367Z,5335
2023-03-28T14:58:20.605Z,5468
2023-03-28T14:59:34.813Z,5600
2023-03-28T15:00:49.111Z,5321
2023-03-28T15:02:03.359Z,5755
2023-03-28T15:04:31.822Z,6224
2023-03-28T15:05:46.047Z,6428
2023-03-28T15:07:00.332Z,6201
2023-03-28T15:08:14.585Z,5970
2023-03-28T15:09:28.951Z,5871
2023-03-28T15:10:43.174Z,5564
2023-03-28T15:11:57.527Z,5530
2023-03-28T15:13:11.821Z,4976
2023-03-28T15:14:26.062Z,4871
2023-03-28T15:15:40.299Z,4787
2023-03-28T15:16:54.527Z,4675
2023-03-28T15:18:08.754Z,4702
2023-03-28T15:19:23.048Z,4743
2023-03-28T15:20:37.292Z,4866
2023-03-28T15:21:51.510Z,5005
2023-03-28T15:24:19.971Z,5039
2023-03-28T15:25:34.270Z,5192
2023-03-28T15:26:48.508Z,9631
2023-03-28T15:28:02.742Z,7807
2023-03-28T15:29:17.076Z,6090
2023-03-28T15:30:31.318Z,12365
2023-03-28T15:31:45.611Z,6483
2023-03-28T15:32:59.855Z,10606
2023-03-28T15:34:14.080Z,6204
2023-03-28T15:35:28.310Z,5302
2023-03-28T15:36:42.685Z,4994
2023-03-28T15:37:56.981Z,4716
2023-03-28T15:40:25.455Z,4255
2023-03-28T15:41:39.678Z,4081
2023-03-28T15:42:53.889Z,4069
2023-03-28T15:44:08.192Z,4405
2023-03-28T15:45:22.441Z,4502
2023-03-28T15:46:36.781Z,4000
2023-03-28T15:47:51.025Z,3757
2023-03-28T15:49:05.237Z,3687
2023-03-28T15:50:19.538Z,3832
2023-03-28T15:51:33.789Z,3999
2023-03-28T15:52:48.016Z,4232
2023-03-28T15:54:02.242Z,4250
2023-03-28T15:55:16.462Z,4255
2023-03-28T15:56:30.766Z,4063
2023-03-28T15:57:45.011Z,3720
2023-03-28T15:58:59.223Z,3547
2023-03-28T16:00:13.461Z,3521
2023-03-28T16:01:27.684Z,3561
2023-03-28T16:02:41.976Z,3133
2023-03-28T16:03:56.219Z,2927
2023-03-28T16:05:10.455Z,2758
2023-03-28T16:06:24.810Z,2707
2023-03-28T16:07:39.053Z,2692
2023-03-28T16:08:53.347Z,2726
2023-03-28T16:10:07.580Z,2739
2023-03-28T16:11:21.966Z,2737
2023-03-28T16:12:36.178Z,2703
2023-03-28T16:13:50.402Z,2663
2023-03-28T16:15:04.718Z,2691
2023-03-28T16:16:18.958Z,2702
2023-03-28T16:17:33.171Z,2761
2023-03-28T16:20:01.626Z,2950
2023-03-28T16:21:15.927Z,3053
2023-03-28T16:22:30.164Z,3006
2023-03-28T16:23:44.541Z,3055
2023-03-28T16:24:58.764Z,2918
2023-03-28T16:26:13.112Z,2865
2023-03-28T16:27:27.421Z,2814
2023-03-28T16:28:41.668Z,2706
2023-03-28T16:29:55.889Z,2482
2023-03-28T16:31:10.106Z,2111
2023-03-28T16:32:24.351Z,1976
2023-03-28T16:33:38.652Z,1689
2023-03-28T16:34:52.875Z,1492
2023-03-28T16:36:07.107Z,1434
2023-03-28T16:37:21.334Z,1462
2023-03-28T16:39:49.871Z,1430
2023-03-28T16:41:04.112Z,1509
2023-03-28T16:42:18.326Z,1519
2023-03-28T16:43:32.561Z,1469
2023-03-28T16:44:46.781Z,1459
2023-03-28T16:46:01.084Z,1451
2023-03-28T16:47:15.324Z,1387
2023-03-28T16:48:29.549Z,1333
2023-03-28T16:49:43.787Z,1307
2023-03-28T16:50:58.011Z,1310
2023-03-28T16:52:12.311Z,1329
2023-03-28T16:53:26.547Z,1302
2023-03-28T16:54:40.777Z,1252
2023-03-28T16:55:55.136Z,1189
2023-03-28T16:57:09.376Z,1178
2023-03-28T16:58:23.671Z,1152
2023-03-28T16:59:37.914Z,1064
2023-03-28T17:00:52.146Z,984
2023-03-28T17:02:06.362Z,928
2023-03-28T17:03:20.583Z,912
2023-03-28T17:04:34.893Z,886
2023-03-28T17:07:03.359Z,853
2023-03-28T17:08:17.574Z,821
2023-03-28T17:09:31.809Z,798
2023-03-28T17:10:46.103Z,774
2023-03-28T17:12:00.346Z,754
2023-03-28T17:13:14.727Z,731
2023-03-28T17:14:28.942Z,696
2023-03-28T17:15:43.291Z,668
2023-03-28T17:16:57.603Z,622
2023-03-28T17:18:11.829Z,569
2023-03-28T17:19:26.068Z,541
2023-03-28T17:20:40.294Z,508
2023-03-28T17:21:54.507Z,497
2023-03-28T17:23:08.809Z,474
2023-03-28T17:24:23.068Z,450
2023-03-28T17:25:37.286Z,428
2023-03-28T17:26:51.506Z,405
2023-03-28T17:28:05.743Z,392
2023-03-28T17:29:20.034Z,370
2023-03-28T17:31:48.500Z,325
2023-03-28T17:33:02.844Z,304
2023-03-28T17:34:17.077Z,296
2023-03-28T17:35:31.382Z,280
2023-03-28T17:36:45.626Z,265
2023-03-28T17:37:59.840Z,251
2023-03-28T17:39:14.068Z,234
2023-03-28T17:40:28.292Z,231
2023-03-28T17:41:42.608Z,217
2023-03-28T17:42:56.842Z,198
2023-03-28T17:44:11.061Z,186
2023-03-28T17:45:25.300Z,171
2023-03-28T17:46:39.527Z,167
2023-03-28T17:47:53.818Z,156